Time;durP1;ratioP1;P1;durP2;ratioP2;P2;SDS_P1;SDS_P2;PMS_P1;PMS_P2;Temp;Humidity;BMP_temperature;BMP_pressure;BME280_temperature;BME280_humidity;BME280_pressure;Samples;Min_cycle;Max_cycle;Signal;HPM_P1;HPM_P2
2023/05/28 00:01:50;;;;;;;7.90;3.58;;;11.80;99.90;;;;;;4954207;28;20046;-78
2023/05/28 00:04:16;;;;;;;11.40;4.70;;;11.80;99.90;;;;;;4939480;29;20115;-79
2023/05/28 00:06:41;;;;;;;7.20;4.35;;;11.80;99.90;;;;;;4940798;28;20024;-79
2023/05/28 00:09:09;;;;;;;7.65;3.75;;;11.70;99.90;;;;;;4958574;28;20059;-78
2023/05/28 00:11:34;;;;;;;13.57;4.57;;;11.70;99.90;;;;;;4947129;28;20038;-78
2023/05/28 00:14:00;;;;;;;8.40;3.58;;;11.60;99.90;;;;;;4971602;28;20037;-78
2023/05/28 00:16:27;;;;;;;7.93;4.15;;;11.60;99.90;;;;;;4971320;28;20029;-79
2023/05/28 00:18:52;;;;;;;12.23;3.78;;;11.60;99.90;;;;;;4972268;28;20094;-79
2023/05/28 00:21:18;;;;;;;6.43;3.92;;;11.60;99.90;;;;;;4972224;28;20551;-78
2023/05/28 00:23:44;;;;;;;5.10;3.47;;;11.50;99.90;;;;;;4971581;28;20100;-79
2023/05/28 00:26:09;;;;;;;7.00;3.75;;;11.50;99.90;;;;;;4971532;28;20106;-78
2023/05/28 00:28:35;;;;;;;10.23;3.88;;;11.40;99.90;;;;;;4972221;28;20559;-78
2023/05/28 00:31:02;;;;;;;11.00;4.68;;;11.40;99.90;;;;;;4973752;28;20031;-78
2023/05/28 00:33:27;;;;;;;10.95;4.53;;;11.40;99.90;;;;;;4973219;28;20077;-77
2023/05/28 00:35:55;;;;;;;10.43;4.10;;;11.30;99.90;;;;;;4972074;28;20501;-77
2023/05/28 00:38:21;;;;;;;7.05;4.00;;;11.30;99.90;;;;;;4971895;28;20078;-78
2023/05/28 00:40:47;;;;;;;10.57;4.07;;;11.20;99.90;;;;;;4972793;28;20038;-78
2023/05/28 00:43:13;;;;;;;12.30;4.35;;;11.30;99.90;;;;;;4972032;28;20369;-78
2023/05/28 00:45:39;;;;;;;5.22;3.13;;;11.20;99.90;;;;;;4955927;28;20031;-78
2023/05/28 00:48:05;;;;;;;5.55;2.97;;;11.10;99.90;;;;;;4971563;28;20423;-79
2023/05/28 00:50:31;;;;;;;13.68;3.90;;;11.20;99.90;;;;;;4972672;28;20026;-79
2023/05/28 00:52:57;;;;;;;6.32;3.78;;;11.10;99.90;;;;;;4972252;28;20023;-78
2023/05/28 00:55:23;;;;;;;10.32;4.00;;;11.10;99.90;;;;;;4970728;28;20129;-78
2023/05/28 00:57:54;;;;;;;5.70;3.78;;;11.00;99.90;;;;;;4972032;28;20023;-78
2023/05/28 01:00:20;;;;;;;10.85;4.10;;;11.00;99.90;;;;;;4957382;28;20035;-78
2023/05/28 01:02:45;;;;;;;16.33;4.80;;;11.00;99.90;;;;;;4973299;28;20069;-79
2023/05/28 01:05:11;;;;;;;7.10;4.07;;;11.00;99.90;;;;;;4972795;28;20129;-78
2023/05/28 01:07:37;;;;;;;7.25;3.53;;;11.00;99.90;;;;;;4976324;28;20034;-79
2023/05/28 01:10:03;;;;;;;5.10;3.60;;;;;;;;;;4974055;28;20019;-78
2023/05/28 01:12:31;;;;;;;7.95;4.63;;;10.80;99.90;;;;;;4971761;28;20026;-78
2023/05/28 01:14:57;;;;;;;7.47;3.83;;;10.80;99.90;;;;;;4954521;28;20567;-79
2023/05/28 01:17:24;;;;;;;11.40;4.53;;;10.80;99.90;;;;;;4954409;28;20058;-78
2023/05/28 01:19:50;;;;;;;8.48;3.22;;;10.70;99.90;;;;;;4954454;28;20039;-78
2023/05/28 01:22:25;;;;;;;7.53;4.30;;;10.70;99.90;;;;;;4970898;28;20034;-79
2023/05/28 01:24:51;;;;;;;10.00;4.25;;;10.60;99.90;;;;;;4953900;28;20133;-78
2023/05/28 01:27:18;;;;;;;9.98;3.80;;;10.60;99.90;;;;;;4971593;28;20023;-79
2023/05/28 01:29:44;;;;;;;12.35;4.68;;;10.50;99.90;;;;;;4970330;28;20031;-78
2023/05/28 01:32:10;;;;;;;10.57;4.45;;;10.50;99.90;;;;;;4970054;28;20026;-77
2023/05/28 01:34:36;;;;;;;6.78;3.80;;;10.60;99.90;;;;;;4970346;28;20031;-78
2023/05/28 01:37:07;;;;;;;6.35;2.97;;;10.60;99.90;;;;;;4970300;28;20398;-78
2023/05/28 01:39:44;;;;;;;12.25;3.67;;;10.50;99.90;;;;;;4953830;28;20109;-79
2023/05/28 01:42:11;;;;;;;11.85;4.45;;;10.60;99.90;;;;;;4953799;28;20081;-79
2023/05/28 01:44:37;;;;;;;6.53;3.10;;;10.50;99.90;;;;;;4970478;28;20050;-77
2023/05/28 01:47:04;;;;;;;7.20;3.40;;;10.50;99.90;;;;;;4971420;28;20106;-77
2023/05/28 01:49:30;;;;;;;12.60;3.70;;;10.60;99.90;;;;;;4953777;28;20082;-78
2023/05/28 01:51:56;;;;;;;12.32;3.25;;;10.50;99.90;;;;;;4953891;28;20033;-79
2023/05/28 01:54:22;;;;;;;4.93;3.40;;;10.40;99.90;;;;;;4969752;28;20053;-79
2023/05/28 01:56:48;;;;;;;9.48;3.33;;;10.40;99.90;;;;;;4954879;28;20476;-80
2023/05/28 01:59:13;;;;;;;7.78;3.08;;;10.30;99.90;;;;;;4974065;28;20539;-79
2023/05/28 02:01:39;;;;;;;7.30;2.95;;;;;;;;;;4975893;28;20019;-79
2023/05/28 02:04:05;;;;;;;11.20;3.60;;;10.30;99.90;;;;;;4972360;28;20105;-79
2023/05/28 02:06:32;;;;;;;8.85;3.70;;;10.30;99.90;;;;;;4972631;28;20322;-77
2023/05/28 02:08:58;;;;;;;6.13;3.72;;;10.30;99.90;;;;;;4978048;28;20030;-79
2023/05/28 02:11:24;;;;;;;5.78;3.45;;;10.40;99.90;;;;;;4960066;28;20033;-79
2023/05/28 02:13:50;;;;;;;8.52;3.67;;;10.20;99.90;;;;;;4976452;28;20034;-78
2023/05/28 02:16:19;;;;;;;9.70;3.58;;;10.20;99.90;;;;;;4979253;28;20023;-79
2023/05/28 02:18:45;;;;;;;9.27;3.47;;;10.10;99.90;;;;;;4978625;28;20043;-78
2023/05/28 02:21:12;;;;;;;9.63;4.10;;;10.10;99.90;;;;;;4979289;28;20107;-79
2023/05/28 02:23:46;;;;;;;10.23;3.33;;;10.00;99.90;;;;;;4963087;28;20138;-79
2023/05/28 02:26:11;;;;;;;4.90;3.28;;;10.00;99.90;;;;;;4964310;28;20061;-78
2023/05/28 02:28:37;;;;;;;9.38;3.92;;;9.90;99.90;;;;;;4963360;28;20022;-78
2023/05/28 02:31:03;;;;;;;7.47;2.67;;;9.90;99.90;;;;;;4963220;28;20026;-78
2023/05/28 02:33:29;;;;;;;15.05;3.80;;;9.80;99.90;;;;;;4980723;28;20027;-79
2023/05/28 02:35:55;;;;;;;7.60;3.53;;;9.80;99.90;;;;;;4978842;28;20033;-79
2023/05/28 02:38:21;;;;;;;7.43;4.30;;;9.80;99.90;;;;;;4977716;28;20030;-78
2023/05/28 02:40:46;;;;;;;6.00;3.38;;;9.80;99.90;;;;;;4976904;28;20031;-80
2023/05/28 02:43:12;;;;;;;6.45;3.47;;;9.80;99.90;;;;;;4975995;28;20078;-79
2023/05/28 02:45:37;;;;;;;5.47;3.00;;;9.80;99.90;;;;;;4958775;28;20030;-78
2023/05/28 02:48:03;;;;;;;5.90;3.50;;;9.70;99.90;;;;;;4976483;28;20027;-78
2023/05/28 02:50:29;;;;;;;9.80;3.22;;;9.70;99.90;;;;;;4976321;28;20030;-79
2023/05/28 02:52:56;;;;;;;11.88;3.75;;;9.70;99.90;;;;;;4976412;28;20559;-79
2023/05/28 02:55:22;;;;;;;9.00;3.65;;;9.70;99.90;;;;;;4976025;28;20106;-79
2023/05/28 02:57:47;;;;;;;6.97;3.35;;;9.70;99.90;;;;;;4960292;28;20057;-78
2023/05/28 03:00:13;;;;;;;10.13;3.55;;;;;;;;;;4975644;28;20215;-79
2023/05/28 03:02:39;;;;;;;4.68;3.20;;;9.70;99.90;;;;;;4975518;28;20020;-79
2023/05/28 03:05:05;;;;;;;5.20;2.90;;;9.60;99.90;;;;;;4975003;28;20396;-79
2023/05/28 03:07:31;;;;;;;4.57;2.75;;;;;;;;;;4975993;28;20035;-79
2023/05/28 03:09:59;;;;;;;8.07;2.97;;;9.50;99.90;;;;;;4977513;28;20038;-79
2023/05/28 03:12:25;;;;;;;6.10;4.32;;;9.50;99.90;;;;;;4962300;28;20295;-78
2023/05/28 03:14:50;;;;;;;7.68;3.75;;;9.50;99.90;;;;;;4961243;28;20428;-80
2023/05/28 03:17:16;;;;;;;6.80;4.25;;;9.40;99.90;;;;;;4977231;28;20475;-79
2023/05/28 03:19:42;;;;;;;6.00;3.05;;;9.40;99.90;;;;;;4975887;28;20077;-78
2023/05/28 03:22:08;;;;;;;12.02;3.58;;;9.40;99.90;;;;;;4958228;28;20090;-79
2023/05/28 03:24:34;;;;;;;6.80;3.53;;;9.40;99.90;;;;;;4958605;28;20507;-78
2023/05/28 03:27:01;;;;;;;10.32;3.63;;;9.40;99.90;;;;;;4974978;28;20026;-79
2023/05/28 03:29:26;;;;;;;8.93;4.20;;;9.40;99.90;;;;;;4960130;28;20078;-78
2023/05/28 03:31:52;;;;;;;7.57;3.75;;;9.40;99.90;;;;;;4977313;28;20027;-78
2023/05/28 03:34:18;;;;;;;12.35;3.13;;;9.40;99.90;;;;;;4976717;28;20029;-77
2023/05/28 03:36:44;;;;;;;5.03;3.03;;;;;;;;;;4978529;28;20023;-79
2023/05/28 03:39:10;;;;;;;11.43;3.25;;;9.40;99.90;;;;;;4978149;28;20047;-79
2023/05/28 03:41:36;;;;;;;8.73;2.97;;;9.30;99.90;;;;;;4961600;28;20357;-80
2023/05/28 03:44:03;;;;;;;7.30;3.55;;;9.30;99.90;;;;;;4959901;28;20027;-80
2023/05/28 03:46:29;;;;;;;7.35;3.83;;;9.30;99.90;;;;;;4958423;28;20030;-79
2023/05/28 03:48:55;;;;;;;17.60;3.97;;;9.30;99.90;;;;;;4975839;28;20037;-80
2023/05/28 03:51:23;;;;;;;5.63;3.80;;;9.20;99.90;;;;;;4975774;28;20105;-79
2023/05/28 03:53:49;;;;;;;7.57;3.88;;;9.30;99.90;;;;;;4974181;28;20021;-79
2023/05/28 03:56:15;;;;;;;6.25;3.30;;;9.30;99.90;;;;;;4957418;28;20019;-78
2023/05/28 03:58:40;;;;;;;8.15;3.63;;;9.30;99.90;;;;;;4958534;28;20066;-78
2023/05/28 04:01:07;;;;;;;7.55;4.35;;;9.30;99.90;;;;;;4975836;28;20022;-79
2023/05/28 04:03:33;;;;;;;9.55;2.88;;;9.30;99.90;;;;;;4975504;28;20026;-80
2023/05/28 04:05:59;;;;;;;7.53;4.05;;;9.30;99.90;;;;;;4975331;28;20376;-79
2023/05/28 04:08:25;;;;;;;8.82;3.92;;;9.40;99.90;;;;;;4978676;28;20019;-80
2023/05/28 04:10:50;;;;;;;16.73;4.47;;;9.40;99.90;;;;;;4978879;28;20522;-80
2023/05/28 04:13:16;;;;;;;8.43;3.55;;;9.50;99.90;;;;;;4979261;28;20050;-79
2023/05/28 04:15:42;;;;;;;11.55;3.78;;;9.50;99.90;;;;;;4978406;28;20031;-78
2023/05/28 04:18:08;;;;;;;8.38;3.22;;;9.50;99.90;;;;;;4976549;28;20026;-79
2023/05/28 04:20:35;;;;;;;8.68;4.18;;;9.60;99.90;;;;;;4975896;28;20067;-80
2023/05/28 04:23:01;;;;;;;8.90;3.28;;;9.60;99.90;;;;;;4976588;28;20035;-79
2023/05/28 04:25:28;;;;;;;7.15;3.42;;;9.70;99.90;;;;;;4977142;28;20623;-80
2023/05/28 04:27:54;;;;;;;8.35;3.63;;;9.80;99.90;;;;;;4976389;28;20045;-79
2023/05/28 04:30:22;;;;;;;9.02;3.42;;;9.90;99.90;;;;;;4976846;28;20468;-79
2023/05/28 04:32:51;;;;;;;5.68;3.15;;;10.00;99.90;;;;;;4961615;28;20026;-78
2023/05/28 04:35:17;;;;;;;13.30;3.60;;;10.20;99.90;;;;;;4959411;28;20027;-80
2023/05/28 04:37:44;;;;;;;5.00;3.28;;;10.30;99.90;;;;;;4977214;28;20033;-79
2023/05/28 04:40:14;;;;;;;5.65;2.65;;;10.50;99.90;;;;;;4979521;28;20496;-79
2023/05/28 04:42:40;;;;;;;6.00;2.70;;;10.80;99.90;;;;;;4976480;28;20037;-78
2023/05/28 04:45:10;;;;;;;7.65;3.40;;;11.10;99.90;;;;;;4957225;28;20034;-78
2023/05/28 04:47:38;;;;;;;;;;;11.40;99.90;;;;;;4974772;28;20034;-79
2023/05/28 04:50:06;;;;;;;6.80;2.30;;;11.40;99.90;;;;;;4972855;28;20452;-79
2023/05/28 04:52:35;;;;;;;4.32;2.63;;;11.60;99.90;;;;;;4956674;28;20117;-79
2023/05/28 04:55:06;;;;;;;7.00;2.95;;;11.50;99.90;;;;;;4957286;28;20034;-78
2023/05/28 04:57:32;;;;;;;5.55;4.00;;;11.40;99.90;;;;;;4974352;28;20035;-78
2023/05/28 04:59:58;;;;;;;11.07;3.40;;;11.50;99.90;;;;;;4972695;28;20035;-79
2023/05/28 05:02:24;;;;;;;8.50;3.38;;;11.50;99.90;;;;;;4956390;28;20050;-78
2023/05/28 05:04:50;;;;;;;12.13;3.10;;;11.50;99.90;;;;;;4973021;28;20483;-78
2023/05/28 05:07:16;;;;;;;7.72;3.60;;;11.50;99.90;;;;;;4955826;28;20023;-78
2023/05/28 05:09:42;;;;;;;4.22;3.08;;;11.50;99.90;;;;;;4973672;28;20110;-79
2023/05/28 05:12:08;;;;;;;7.55;3.40;;;11.60;99.90;;;;;;4973078;28;20069;-79
2023/05/28 05:14:35;;;;;;;10.02;3.53;;;11.80;99.90;;;;;;4974155;28;20030;-79
2023/05/28 05:17:02;;;;;;;9.15;2.83;;;;;;;;;;4973515;28;20054;-77
2023/05/28 05:19:27;;;;;;;7.60;3.05;;;12.00;99.90;;;;;;4972143;28;20043;-79
2023/05/28 05:21:53;;;;;;;5.32;3.47;;;12.10;99.90;;;;;;4971737;28;20558;-78
2023/05/28 05:24:19;;;;;;;6.40;3.00;;;12.20;99.90;;;;;;4971739;28;20076;-79
2023/05/28 05:26:45;;;;;;;5.45;3.17;;;;;;;;;;4973944;28;20031;-78
2023/05/28 05:29:10;;;;;;;5.22;2.67;;;12.40;99.90;;;;;;4971629;28;20113;-79
2023/05/28 05:31:36;;;;;;;10.13;3.75;;;12.50;99.90;;;;;;4973032;28;20386;-79
2023/05/28 05:34:02;;;;;;;5.18;3.25;;;12.50;99.90;;;;;;4973549;28;20034;-79
2023/05/28 05:36:28;;;;;;;7.78;3.63;;;;;;;;;;4972839;28;20034;-79
2023/05/28 05:38:53;;;;;;;5.30;2.92;;;12.90;99.90;;;;;;4971323;28;20035;-77
2023/05/28 05:41:21;;;;;;;8.20;3.55;;;13.10;99.90;;;;;;4971813;28;20035;-79
2023/05/28 05:43:46;;;;;;;10.73;4.57;;;13.30;99.90;;;;;;4969682;28;20435;-80
2023/05/28 05:46:12;;;;;;;15.77;4.00;;;13.50;99.90;;;;;;4969711;28;20027;-78
2023/05/28 05:48:38;;;;;;;7.93;2.92;;;13.60;99.90;;;;;;4969908;28;20086;-78
2023/05/28 05:51:03;;;;;;;13.48;4.50;;;13.60;99.90;;;;;;4969668;28;20027;-78
2023/05/28 05:53:29;;;;;;;8.55;3.70;;;13.70;99.90;;;;;;4969896;28;20026;-78
2023/05/28 05:55:55;;;;;;;8.80;4.28;;;;;;;;;;4958492;28;20057;-78
2023/05/28 05:58:21;;;;;;;5.82;3.47;;;14.10;99.90;;;;;;4953519;28;20058;-79
2023/05/28 06:00:50;;;;;;;7.85;3.58;;;14.20;99.90;;;;;;4953403;28;20069;-78
2023/05/28 06:03:16;;;;;;;14.95;4.40;;;14.50;99.90;;;;;;4953153;28;20507;-78
2023/05/28 06:05:41;;;;;;;10.18;3.42;;;14.70;99.90;;;;;;4971079;28;20054;-79
2023/05/28 06:08:07;;;;;;;13.75;4.28;;;15.10;99.90;;;;;;4953640;28;20038;-78
2023/05/28 06:10:33;;;;;;;9.88;3.55;;;15.10;99.90;;;;;;4953061;28;20023;-78
2023/05/28 06:13:02;;;;;;;7.72;3.53;;;15.50;99.90;;;;;;4970772;28;20027;-78
2023/05/28 06:15:28;;;;;;;11.63;4.07;;;15.90;99.90;;;;;;4953350;28;20034;-78
2023/05/28 06:17:55;;;;;;;8.98;3.75;;;16.20;99.90;;;;;;4953405;28;20114;-78
2023/05/28 06:20:21;;;;;;;4.60;3.35;;;16.00;99.90;;;;;;4952906;28;20441;-78
2023/05/28 06:22:47;;;;;;;11.57;3.65;;;16.10;99.90;;;;;;4970041;28;20027;-78
2023/05/28 06:25:12;;;;;;;7.60;3.47;;;16.20;99.90;;;;;;4970047;28;20060;-78
2023/05/28 06:27:38;;;;;;;13.45;3.95;;;16.30;99.90;;;;;;4970289;28;20054;-78
2023/05/28 06:30:04;;;;;;;12.73;4.57;;;16.20;99.90;;;;;;4953031;28;20046;-78
2023/05/28 06:32:31;;;;;;;8.20;3.60;;;16.20;99.90;;;;;;4953327;28;20027;-78
2023/05/28 06:34:58;;;;;;;9.05;3.95;;;16.30;99.90;;;;;;4961287;28;20027;-79
2023/05/28 06:37:24;;;;;;;8.18;4.45;;;16.50;99.90;;;;;;4958420;28;20027;-79
2023/05/28 06:39:50;;;;;;;10.07;3.65;;;16.90;99.90;;;;;;4952197;28;20046;-78
2023/05/28 06:42:15;;;;;;;9.48;4.20;;;17.80;97.10;;;;;;4974716;28;20034;-80
2023/05/28 06:44:41;;;;;;;12.35;4.18;;;18.70;92.60;;;;;;4951636;28;20035;-79
2023/05/28 06:47:07;;;;;;;10.73;4.30;;;19.60;87.40;;;;;;4950636;28;20118;-78
2023/05/28 06:49:32;;;;;;;8.35;4.38;;;20.70;79.60;;;;;;4951090;28;20023;-79
2023/05/28 06:51:58;;;;;;;6.93;3.85;;;21.30;74.60;;;;;;4968983;28;20027;-79
2023/05/28 06:54:23;;;;;;;9.30;4.05;;;21.50;74.30;;;;;;4954229;28;20058;-79
2023/05/28 06:56:49;;;;;;;6.72;3.40;;;21.30;72.10;;;;;;4972003;28;20023;-80
2023/05/28 06:59:15;;;;;;;12.25;4.13;;;21.80;71.80;;;;;;4954959;28;20050;-79
2023/05/28 07:01:41;;;;;;;10.40;3.95;;;;;;;;;;4973356;28;20167;-79
2023/05/28 07:04:07;;;;;;;7.07;3.72;;;21.80;68.90;;;;;;4956270;28;20034;-78
2023/05/28 07:06:33;;;;;;;10.95;3.58;;;22.10;69.30;;;;;;4973531;28;20447;-79
2023/05/28 07:08:59;;;;;;;11.63;4.05;;;22.50;67.00;;;;;;4958635;28;20034;-78
2023/05/28 07:11:26;;;;;;;8.90;4.10;;;23.20;64.50;;;;;;4959075;28;20037;-78
2023/05/28 07:13:54;;;;;;;11.98;3.45;;;23.60;66.30;;;;;;4983968;28;20022;-77
2023/05/28 07:16:20;;;;;;;12.50;4.35;;;23.80;63.30;;;;;;4964529;28;20018;-76
2023/05/28 07:18:46;;;;;;;9.15;4.63;;;24.10;62.90;;;;;;4981276;28;20062;-76
2023/05/28 07:21:12;;;;;;;9.43;3.90;;;24.30;63.10;;;;;;4966493;28;20073;-78
2023/05/28 07:23:38;;;;;;;5.07;2.92;;;24.70;62.50;;;;;;4982300;28;20409;-79
2023/05/28 07:26:04;;;;;;;8.30;3.50;;;24.80;61.40;;;;;;4963427;28;20325;-79
2023/05/28 07:28:30;;;;;;;11.38;3.85;;;24.50;60.00;;;;;;4952106;28;20024;-78
2023/05/28 07:30:56;;;;;;;6.80;2.70;;;24.70;61.30;;;;;;4965335;28;20021;-78
2023/05/28 07:33:22;;;;;;;8.65;2.95;;;;;;;;;;4954385;28;20043;-78
2023/05/28 07:35:48;;;;;;;14.23;3.60;;;;;;;;;;4960662;28;20023;-83
2023/05/28 07:38:17;;;;;;;7.63;2.38;;;24.30;58.40;;;;;;4946930;28;20019;-79
2023/05/28 07:40:43;;;;;;;8.02;3.05;;;;;;;;;;4977675;28;20033;-79
2023/05/28 07:43:09;;;;;;;8.77;2.88;;;24.10;60.00;;;;;;4946820;28;20023;-77
2023/05/28 07:45:35;;;;;;;10.50;3.45;;;;;;;;;;4952637;28;20117;-80
2023/05/28 07:48:01;;;;;;;9.38;3.47;;;24.30;58.70;;;;;;4953811;28;20074;-78
2023/05/28 07:50:27;;;;;;;8.23;3.58;;;23.90;61.70;;;;;;4963384;28;20051;-79
2023/05/28 07:52:53;;;;;;;7.97;2.65;;;23.90;62.20;;;;;;4934746;29;20127;-78
2023/05/28 07:55:19;;;;;;;4.75;2.70;;;23.10;61.40;;;;;;4967196;28;20054;-78
2023/05/28 07:57:45;;;;;;;9.88;3.53;;;23.20;63.50;;;;;;4964758;28;20492;-79
2023/05/28 08:00:12;;;;;;;10.20;3.45;;;23.20;62.90;;;;;;4972084;28;20035;-78
2023/05/28 08:02:38;;;;;;;6.07;3.20;;;22.80;64.70;;;;;;4956490;28;20029;-78
2023/05/28 08:05:04;;;;;;;8.82;3.58;;;23.00;64.30;;;;;;4948423;28;20019;-78
2023/05/28 08:07:31;;;;;;;4.70;3.03;;;23.10;64.60;;;;;;4965885;28;20113;-78
2023/05/28 08:09:57;;;;;;;4.97;2.97;;;22.90;62.60;;;;;;4972818;28;20390;-78
2023/05/28 08:12:23;;;;;;;7.40;2.83;;;23.00;64.20;;;;;;4970523;28;20216;-78
2023/05/28 08:14:48;;;;;;;4.70;2.80;;;23.10;62.20;;;;;;4970137;28;20023;-78
2023/05/28 08:17:14;;;;;;;8.65;3.33;;;23.10;63.50;;;;;;4971731;28;20033;-79
2023/05/28 08:19:40;;;;;;;6.40;3.35;;;23.40;62.10;;;;;;4969866;28;20443;-78
2023/05/28 08:22:06;;;;;;;7.47;2.67;;;23.80;60.80;;;;;;4977068;28;20069;-78
2023/05/28 08:24:32;;;;;;;7.50;3.20;;;24.20;59.30;;;;;;4974254;28;20519;-78
2023/05/28 08:26:57;;;;;;;4.25;2.45;;;24.30;60.40;;;;;;4969347;28;20472;-78
2023/05/28 08:29:23;;;;;;;6.88;2.55;;;24.30;58.00;;;;;;4978358;28;20031;-76
2023/05/28 08:31:48;;;;;;;5.93;2.90;;;24.30;59.00;;;;;;4978227;28;20019;-79
2023/05/28 08:34:14;;;;;;;6.00;2.80;;;24.70;58.00;;;;;;4976989;28;20621;-77
2023/05/28 08:36:40;;;;;;;6.53;3.15;;;24.90;57.80;;;;;;4979752;28;20026;-79
2023/05/28 08:39:06;;;;;;;6.07;2.67;;;24.90;57.20;;;;;;4977403;28;20535;-77
2023/05/28 08:41:32;;;;;;;10.00;3.25;;;24.80;59.60;;;;;;4977742;28;20044;-78
2023/05/28 08:43:57;;;;;;;8.30;2.88;;;24.70;59.40;;;;;;4975077;28;20372;-78
2023/05/28 08:46:23;;;;;;;3.53;2.40;;;24.50;60.20;;;;;;4955340;28;20027;-76
2023/05/28 08:48:50;;;;;;;4.72;3.03;;;24.60;59.30;;;;;;4961233;29;20023;-78
2023/05/28 08:51:19;;;;;;;10.10;3.53;;;24.90;56.70;;;;;;4943127;29;20439;-81
2023/05/28 08:53:49;;;;;;;6.65;2.63;;;24.60;57.50;;;;;;4953084;29;20023;-78
2023/05/28 08:56:14;;;;;;;;;;;24.50;58.00;;;;;;4952404;29;20377;-78
2023/05/28 08:58:40;;;;;;;3.70;2.80;;;24.70;58.20;;;;;;4950702;29;20472;-78
2023/05/28 09:01:08;;;;;;;6.28;2.75;;;24.30;60.70;;;;;;4949790;29;20516;-80
2023/05/28 09:03:37;;;;;;;5.55;2.78;;;24.40;58.90;;;;;;4932326;29;20106;-77
2023/05/28 09:06:03;;;;;;;10.70;3.45;;;24.30;57.10;;;;;;4949437;29;20369;-78
2023/05/28 09:08:29;;;;;;;5.45;3.08;;;24.20;57.30;;;;;;4948833;29;20492;-79
2023/05/28 09:10:56;;;;;;;11.60;3.20;;;23.70;59.40;;;;;;4952896;29;20058;-79
2023/05/28 09:13:22;;;;;;;7.13;3.15;;;23.60;61.20;;;;;;4932363;29;20379;-79
2023/05/28 09:15:52;;;;;;;10.00;3.60;;;23.70;63.20;;;;;;4931235;29;20086;-78
2023/05/28 09:18:21;;;;;;;6.70;3.40;;;23.50;61.60;;;;;;4949305;29;20027;-80
2023/05/28 09:20:50;;;;;;;5.57;2.55;;;23.50;62.40;;;;;;4947937;29;20497;-78
2023/05/28 09:23:17;;;;;;;7.68;3.65;;;24.00;58.90;;;;;;4933469;29;20131;-79
2023/05/28 09:25:47;;;;;;;6.28;2.92;;;24.20;58.90;;;;;;4950633;29;20440;-78
2023/05/28 09:28:15;;;;;;;;;;;24.60;58.50;;;;;;4934921;29;20031;-78
2023/05/28 09:30:41;;;;;;;7.05;3.13;;;24.70;58.10;;;;;;4934838;29;19921;-78
2023/05/28 09:33:08;;;;;;;7.85;3.45;;;24.10;60.80;;;;;;4953191;29;20437;-80
2023/05/28 09:35:35;;;;;;;6.18;3.35;;;23.90;58.80;;;;;;4934692;29;20055;-79
2023/05/28 09:38:10;;;;;;;11.73;2.72;;;23.80;59.10;;;;;;4934683;29;20650;-79
2023/05/28 09:40:41;;;;;;;7.90;3.60;;;23.90;60.40;;;;;;4951784;29;20657;-78
2023/05/28 09:43:08;;;;;;;7.25;3.58;;;24.00;59.20;;;;;;4938930;29;20398;-80
2023/05/28 09:45:34;;;;;;;5.28;2.78;;;24.00;57.70;;;;;;4934935;29;20031;-79
2023/05/28 09:48:00;;;;;;;7.07;3.28;;;24.30;59.50;;;;;;4951669;29;20023;-79
2023/05/28 09:50:27;;;;;;;16.92;3.08;;;24.50;59.00;;;;;;4951673;29;20086;-80
2023/05/28 09:52:58;;;;;;;5.72;3.25;;;24.70;58.50;;;;;;4934705;29;20031;-79
2023/05/28 09:55:25;;;;;;;10.02;3.80;;;24.50;58.10;;;;;;4933845;29;20686;-77
2023/05/28 09:57:58;;;;;;;5.22;2.90;;;24.90;57.60;;;;;;4951450;29;20031;-80
2023/05/28 10:00:31;;;;;;;10.10;3.53;;;25.20;57.40;;;;;;4951187;29;20496;-78
2023/05/28 10:03:12;;;;;;;4.13;2.60;;;26.00;56.10;;;;;;4933844;29;20050;-79
2023/05/28 10:05:42;;;;;;;8.70;3.45;;;25.60;55.30;;;;;;4933989;29;20023;-79
2023/05/28 10:08:11;;;;;;;4.10;2.80;;;25.10;57.90;;;;;;4949976;29;20027;-79
2023/05/28 10:10:40;;;;;;;8.27;3.80;;;25.50;57.70;;;;;;4951111;29;20027;-78
2023/05/28 10:13:09;;;;;;;6.03;3.20;;;25.40;57.60;;;;;;4951092;29;20032;-79
2023/05/28 10:15:36;;;;;;;7.95;3.38;;;25.60;57.50;;;;;;4934173;29;20468;-79
2023/05/28 10:18:03;;;;;;;10.35;3.22;;;25.40;57.90;;;;;;4933775;29;20031;-79
2023/05/28 10:20:29;;;;;;;7.65;3.30;;;25.80;56.60;;;;;;4950762;29;20035;-81
2023/05/28 10:22:55;;;;;;;5.93;3.13;;;25.90;56.40;;;;;;4933877;29;20484;-78
2023/05/28 10:25:21;;;;;;;8.32;3.20;;;25.90;55.20;;;;;;4951308;29;20097;-79
2023/05/28 10:27:51;;;;;;;6.70;3.17;;;25.60;56.80;;;;;;4935171;29;20024;-79
2023/05/28 10:30:32;;;;;;;5.85;2.78;;;25.90;57.70;;;;;;4937606;29;20031;-78
2023/05/28 10:32:58;;;;;;;4.30;2.42;;;26.20;56.10;;;;;;4955129;29;20122;-79
2023/05/28 10:35:23;;;;;;;5.63;3.47;;;26.10;57.40;;;;;;4937553;29;20122;-80
2023/05/28 10:37:49;;;;;;;8.13;3.03;;;26.50;54.10;;;;;;4937616;29;20295;-79
2023/05/28 10:40:24;;;;;;;7.50;2.55;;;26.10;55.30;;;;;;4954439;29;20032;-77
2023/05/28 10:42:50;;;;;;;7.97;3.58;;;26.20;55.40;;;;;;4937299;29;20029;-77
2023/05/28 10:45:15;;;;;;;5.28;2.83;;;27.20;56.40;;;;;;4955289;29;20039;-79
2023/05/28 10:47:51;;;;;;;5.28;2.88;;;27.40;52.70;;;;;;4957150;28;20045;-78
2023/05/28 10:50:18;;;;;;;10.15;3.33;;;27.30;54.60;;;;;;4971610;28;20089;-80
2023/05/28 10:53:06;;;;;;;7.20;2.92;;;27.20;54.60;;;;;;4955952;28;20558;-79
2023/05/28 10:55:48;;;;;;;7.57;3.20;;;27.40;52.70;;;;;;4955422;28;20045;-78
2023/05/28 10:58:24;;;;;;;8.77;4.07;;;27.80;54.00;;;;;;4972684;28;20102;-78
2023/05/28 11:00:50;;;;;;;3.22;2.92;;;28.10;51.20;;;;;;4973427;28;20031;-78
2023/05/28 11:03:15;;;;;;;6.07;3.55;;;27.40;53.60;;;;;;4956785;28;20027;-78
2023/05/28 11:05:41;;;;;;;8.27;3.47;;;27.00;53.30;;;;;;4975359;28;20038;-82
2023/05/28 11:08:08;;;;;;;4.43;2.80;;;26.90;54.10;;;;;;4954398;28;20019;-81
2023/05/28 11:10:34;;;;;;;8.75;3.35;;;27.10;54.40;;;;;;4971001;28;20082;-81
2023/05/28 11:13:00;;;;;;;5.05;3.28;;;27.60;54.00;;;;;;4970373;28;20034;-78
2023/05/28 11:15:25;;;;;;;5.00;3.03;;;27.70;52.60;;;;;;4971873;28;20046;-81
2023/05/28 11:17:51;;;;;;;10.45;3.00;;;28.10;51.00;;;;;;4970617;28;20030;-77
2023/05/28 11:20:21;;;;;;;7.85;3.00;;;28.20;51.50;;;;;;4954618;28;20535;-83
2023/05/28 11:22:47;;;;;;;4.93;2.88;;;27.40;54.30;;;;;;4955253;28;20027;-80
2023/05/28 11:25:13;;;;;;;5.00;3.10;;;26.70;52.60;;;;;;4973120;28;20404;-85
2023/05/28 11:27:40;;;;;;;7.18;3.15;;;27.00;53.50;;;;;;4955931;28;20023;-78
2023/05/28 11:30:14;;;;;;;5.53;2.80;;;27.50;52.00;;;;;;4972120;28;20065;-80
2023/05/28 11:32:41;;;;;;;6.45;2.47;;;28.10;49.90;;;;;;4955829;28;20081;-79
2023/05/28 11:35:11;;;;;;;5.22;3.20;;;28.50;51.10;;;;;;4956050;28;20027;-78
2023/05/28 11:37:37;;;;;;;8.98;3.30;;;29.40;49.00;;;;;;4955909;28;20025;-79
2023/05/28 11:40:05;;;;;;;5.20;2.50;;;28.80;52.70;;;;;;4973756;28;20039;-85
2023/05/28 11:42:31;;;;;;;6.05;2.90;;;28.20;49.00;;;;;;4973917;28;20082;-79
2023/05/28 11:44:57;;;;;;;10.05;3.08;;;28.00;50.80;;;;;;4973328;28;20177;-80
2023/05/28 11:47:24;;;;;;;7.45;2.92;;;27.90;49.40;;;;;;4971865;28;20555;-85
2023/05/28 11:49:50;;;;;;;5.75;2.78;;;28.20;50.40;;;;;;4954685;28;20515;-78
2023/05/28 11:52:22;;;;;;;4.63;2.60;;;27.50;49.10;;;;;;4955698;28;20317;-78
2023/05/28 11:54:55;;;;;;;8.50;3.38;;;27.90;50.80;;;;;;4955344;28;20117;-78
2023/05/28 11:57:25;;;;;;;5.53;3.60;;;28.90;50.00;;;;;;4973230;28;20023;-78
2023/05/28 12:00:16;;;;;;;6.30;2.70;;;29.30;47.60;;;;;;4972917;28;20031;-80
2023/05/28 12:02:42;;;;;;;5.68;2.95;;;28.50;48.20;;;;;;4955448;28;20033;-83
2023/05/28 12:05:08;;;;;;;5.22;2.60;;;28.40;49.90;;;;;;4972697;28;20027;-79
2023/05/28 12:07:35;;;;;;;5.10;2.78;;;28.30;47.90;;;;;;4972518;28;20034;-82
2023/05/28 12:10:09;;;;;;;4.80;2.53;;;28.30;49.20;;;;;;4954932;28;20081;-78
2023/05/28 12:12:42;;;;;;;5.13;3.17;;;28.70;47.80;;;;;;4955093;28;20035;-80
2023/05/28 12:15:08;;;;;;;4.18;2.75;;;28.80;47.10;;;;;;4955343;28;20444;-81
2023/05/28 12:17:38;;;;;;;5.13;2.70;;;29.40;46.80;;;;;;4971327;28;20034;-79
2023/05/28 12:20:06;;;;;;;9.90;2.85;;;29.40;48.10;;;;;;4954986;28;20061;-79
2023/05/28 12:22:32;;;;;;;4.95;2.97;;;29.60;47.30;;;;;;4954886;28;20023;-80
2023/05/28 12:24:58;;;;;;;5.47;2.60;;;29.60;48.90;;;;;;4971990;28;20027;-81
2023/05/28 12:27:24;;;;;;;8.23;3.20;;;29.90;46.90;;;;;;4971076;28;20027;-78
2023/05/28 12:29:50;;;;;;;4.47;2.78;;;30.50;46.20;;;;;;4955053;28;20030;-81
2023/05/28 12:32:15;;;;;;;6.53;2.65;;;31.00;45.90;;;;;;4972389;28;20034;-76
2023/05/28 12:34:41;;;;;;;10.38;2.90;;;31.70;44.30;;;;;;4954885;28;20158;-77
2023/05/28 12:37:08;;;;;;;10.70;3.20;;;30.60;43.90;;;;;;4971159;28;20472;-78
2023/05/28 12:39:35;;;;;;;5.97;2.30;;;30.20;46.00;;;;;;4954400;28;20046;-80
2023/05/28 12:42:01;;;;;;;3.35;2.63;;;30.20;45.70;;;;;;4970428;28;20081;-77
2023/05/28 12:44:27;;;;;;;8.07;2.70;;;29.40;46.60;;;;;;4972046;28;20395;-80
2023/05/28 12:46:53;;;;;;;5.45;2.92;;;29.70;46.20;;;;;;4971868;28;20022;-79
2023/05/28 12:49:18;;;;;;;4.32;2.33;;;30.10;46.30;;;;;;4970446;28;20031;-78